createdAt,value
2023-01-19T00:00:20.979Z,98144.69
2023-01-19T00:02:55.261Z,98148.88
2023-01-19T00:05:36.251Z,98153.19
2023-01-19T00:08:22.075Z,98170.69
2023-01-19T00:11:03.763Z,98153.88
2023-01-19T00:13:33.032Z,98160.69
2023-01-19T00:16:06.078Z,98178.19
2023-01-19T00:18:37.321Z,98158.59
2023-01-19T00:21:11.669Z,98168.31
2023-01-19T00:29:48.627Z,98188.50
2023-01-19T00:32:26.556Z,98182.69
2023-01-19T00:35:02.932Z,98198.09
2023-01-19T00:37:49.702Z,98174.22
2023-01-19T00:40:20.453Z,98170.97
2023-01-19T00:42:49.866Z,98169.38
2023-01-19T00:45:21.683Z,98148.94
2023-01-19T00:47:57.115Z,98167.16
2023-01-19T00:50:34.875Z,98157.69
2023-01-19T00:53:08.732Z,98148.00
2023-01-19T00:55:47.813Z,98158.28
2023-01-19T00:58:30.043Z,98171.84
2023-01-19T01:01:13.113Z,98180.47
2023-01-19T01:03:42.454Z,98188.78
2023-01-19T01:12:16.885Z,98206.38
2023-01-19T01:14:46.405Z,98201.31
2023-01-19T01:17:27.063Z,98187.84
2023-01-19T01:20:02.387Z,98195.97
2023-01-19T01:22:31.240Z,98182.78
2023-01-19T01:25:03.653Z,98206.84
2023-01-19T01:40:52.571Z,98179.63
2023-01-19T01:43:25.629Z,98194.31
2023-01-19T01:45:56.072Z,98195.56
2023-01-19T01:48:30.770Z,98196.22
2023-01-19T01:57:08.217Z,98183.59
2023-01-19T02:03:00.322Z,98211.72
2023-01-19T02:05:34.010Z,98193.00
2023-01-19T02:14:28.892Z,98209.09
2023-01-19T02:16:58.044Z,98214.94
2023-01-19T02:19:36.583Z,98221.50
2023-01-19T02:22:13.840Z,98209.63
2023-01-19T02:24:56.953Z,98233.75
2023-01-19T02:27:29.488Z,98227.91
2023-01-19T02:30:06.075Z,98217.66
2023-01-19T02:32:35.673Z,98226.38
2023-01-19T02:35:10.247Z,98209.34
2023-01-19T02:37:48.808Z,98229.47
2023-01-19T02:40:28.129Z,98220.34
2023-01-19T02:43:04.103Z,98238.03
2023-01-19T02:45:33.781Z,98245.88
2023-01-19T02:48:04.997Z,98247.81
2023-01-19T02:50:49.094Z,98237.25
2023-01-19T02:53:57.292Z,98241.41
2023-01-19T02:56:50.035Z,98245.75
2023-01-19T02:59:31.574Z,98238.13
2023-01-19T03:02:13.026Z,98242.13
2023-01-19T03:05:08.040Z,98228.94
2023-01-19T03:07:50.673Z,98228.06
2023-01-19T03:10:30.416Z,98233.81
2023-01-19T03:13:07.431Z,98232.16
2023-01-19T03:15:42.000Z,98232.88
2023-01-19T03:18:18.828Z,98224.66
2023-01-19T03:20:55.107Z,98234.38
2023-01-19T03:23:30.519Z,98243.31
2023-01-19T03:26:04.651Z,98260.81
2023-01-19T03:28:35.940Z,98274.72
2023-01-19T03:31:18.784Z,98269.16
2023-01-19T03:33:53.987Z,98268.53
2023-01-19T03:36:31.679Z,98273.06
2023-01-19T03:39:01.771Z,98274.84
2023-01-19T03:41:34.231Z,98276.63
2023-01-19T03:44:06.357Z,98288.56
2023-01-19T03:46:43.460Z,98291.63
2023-01-19T03:49:12.669Z,98301.63
2023-01-19T03:51:42.117Z,98298.59
2023-01-19T03:54:20.806Z,98301.25
2023-01-19T03:56:58.185Z,98305.22
2023-01-19T03:59:30.902Z,98325.06
2023-01-19T04:02:01.421Z,98309.88
2023-01-19T04:04:30.835Z,98302.97
2023-01-19T04:07:08.699Z,98301.19
2023-01-19T04:09:42.857Z,98301.22
2023-01-19T04:12:14.499Z,98299.13
2023-01-19T04:14:45.248Z,98303.03
2023-01-19T04:17:17.016Z,98298.03
2023-01-19T04:19:48.944Z,98284.59
2023-01-19T04:22:20.939Z,98281.66
2023-01-19T04:24:55.702Z,98283.94
2023-01-19T04:27:29.583Z,98277.94
2023-01-19T04:30:14.186Z,98290.81
2023-01-19T04:32:51.782Z,98300.97
2023-01-19T04:35:22.273Z,98295.22
2023-01-19T04:37:54.473Z,98291.63
2023-01-19T04:40:25.286Z,98302.31
2023-01-19T04:42:58.839Z,98291.16
2023-01-19T04:45:31.678Z,98312.59
2023-01-19T04:48:00.914Z,98302.84
2023-01-19T04:50:32.361Z,98291.25
2023-01-19T04:53:02.733Z,98299.31
2023-01-19T04:55:32.352Z,98292.25
2023-01-19T04:58:06.942Z,98298.94
2023-01-19T05:00:42.188Z,98318.34
2023-01-19T05:03:11.812Z,98316.84
2023-01-19T05:05:42.914Z,98315.41
2023-01-19T05:08:15.026Z,98329.47
2023-01-19T05:10:46.108Z,98333.34
2023-01-19T05:13:16.429Z,98338.31
2023-01-19T05:15:50.434Z,98324.97
2023-01-19T05:18:20.642Z,98345.56
2023-01-19T05:21:00.201Z,98350.34
2023-01-19T05:23:31.161Z,98338.78
2023-01-19T05:26:10.280Z,98337.28
2023-01-19T05:28:45.551Z,98337.97
2023-01-19T05:31:30.321Z,98338.88
2023-01-19T05:34:12.817Z,98342.91
2023-01-19T05:36:44.588Z,98344.28
2023-01-19T05:39:12.778Z,98335.50
2023-01-19T05:41:52.173Z,98324.69
2023-01-19T05:44:22.811Z,98327.84
2023-01-19T05:47:06.437Z,98333.09
2023-01-19T05:49:37.486Z,98323.34
2023-01-19T05:52:14.199Z,98330.56
2023-01-19T05:59:00.136Z,98325.31
2023-01-19T06:01:42.746Z,98325.19
2023-01-19T06:07:32.446Z,98328.06
2023-01-19T06:10:09.462Z,98328.34
2023-01-19T06:12:42.175Z,98323.88
2023-01-19T06:15:24.008Z,98323.44
2023-01-19T06:17:54.673Z,98342.84
2023-01-19T06:20:24.363Z,98339.19
2023-01-19T06:22:57.915Z,98349.44
2023-01-19T06:25:31.532Z,98365.56
2023-01-19T06:28:02.634Z,98364.91
2023-01-19T06:30:34.941Z,98359.06
2023-01-19T06:33:06.476Z,98347.09
2023-01-19T06:35:36.568Z,98358.94
2023-01-19T06:38:14.720Z,98354.56
2023-01-19T06:40:46.863Z,98357.63
2023-01-19T06:43:15.968Z,98362.09
2023-01-19T06:45:55.525Z,98345.94
2023-01-19T06:48:33.292Z,98336.03
2023-01-19T06:51:10.470Z,98317.19
2023-01-19T06:53:48.358Z,98316.00
2023-01-19T06:56:23.071Z,98320.00
2023-01-19T06:58:53.202Z,98310.31
2023-01-19T07:01:25.557Z,98339.13
2023-01-19T07:04:03.821Z,98362.28
2023-01-19T07:06:34.522Z,98387.28
2023-01-19T07:09:19.607Z,98390.13
2023-01-19T07:11:56.144Z,98377.28
2023-01-19T07:14:33.478Z,98381.00
2023-01-19T07:17:10.424Z,98399.28
2023-01-19T07:19:48.963Z,98404.72
2023-01-19T07:22:21.565Z,98413.78
2023-01-19T07:24:51.713Z,98432.22
2023-01-19T07:27:21.361Z,98426.72
2023-01-19T07:29:50.015Z,98411.81
2023-01-19T07:32:20.743Z,98412.84
2023-01-19T07:34:51.613Z,98417.91
2023-01-19T07:37:26.567Z,98439.75
2023-01-19T07:40:01.595Z,98420.94
2023-01-19T07:42:30.345Z,98419.53
2023-01-19T07:45:04.085Z,98402.84
2023-01-19T07:47:41.576Z,98386.09
2023-01-19T07:50:24.627Z,98374.09
2023-01-19T07:52:54.183Z,98374.44
2023-01-19T07:55:25.665Z,98371.03
2023-01-19T07:57:55.876Z,98400.31
2023-01-19T08:00:25.977Z,98386.22
2023-01-19T08:03:00.838Z,98415.41
2023-01-19T08:05:32.243Z,98390.66
2023-01-19T08:08:07.680Z,98404.47
2023-01-19T08:10:43.092Z,98400.59
2023-01-19T08:13:21.233Z,98399.16
2023-01-19T08:48:51.536Z,98438.84
2023-01-19T08:51:28.361Z,98439.75
2023-01-19T08:53:57.096Z,98440.13
2023-01-19T08:56:26.145Z,98452.97
2023-01-19T09:03:36.072Z,98457.09
2023-01-19T09:06:17.198Z,98460.25
2023-01-19T09:08:55.349Z,98482.72
2023-01-19T09:11:25.282Z,98490.97
2023-01-19T09:13:56.800Z,98471.53
2023-01-19T09:16:37.690Z,98484.78
2023-01-19T09:19:09.221Z,98465.22
2023-01-19T09:21:41.067Z,98464.31
2023-01-19T09:24:21.429Z,98469.78
2023-01-19T09:26:50.594Z,98497.31
2023-01-19T09:29:19.298Z,98481.94
2023-01-19T09:31:56.273Z,98481.38
2023-01-19T09:34:30.953Z,98482.78
2023-01-19T09:37:11.199Z,98476.69
2023-01-19T09:39:43.827Z,98474.72
2023-01-19T09:42:24.676Z,98489.75
2023-01-19T09:44:54.739Z,98468.56
2023-01-19T09:47:30.429Z,98508.16
2023-01-19T09:50:10.643Z,98468.38
2023-01-19T09:52:43.137Z,98480.41
2023-01-19T09:55:24.770Z,98469.16
2023-01-19T09:57:54.634Z,98483.75
2023-01-19T10:00:24.463Z,98477.47
2023-01-19T10:02:57.751Z,98460.38
2023-01-19T10:05:33.025Z,98461.34
2023-01-19T10:08:14.144Z,98530.16
2023-01-19T10:10:53.235Z,98473.69
2023-01-19T10:13:36.572Z,98478.72
2023-01-19T10:16:18.768Z,98506.22
2023-01-19T10:18:53.746Z,98469.78
2023-01-19T10:21:29.712Z,98482.25
2023-01-19T10:24:05.085Z,98482.22
2023-01-19T10:26:42.401Z,98473.69
2023-01-19T10:29:23.485Z,98471.88
2023-01-19T10:31:59.181Z,98479.72
2023-01-19T10:34:39.137Z,98491.41
2023-01-19T10:37:24.985Z,98469.53
2023-01-19T10:39:57.150Z,98472.78
2023-01-19T10:42:39.180Z,98481.88
2023-01-19T10:45:50.345Z,98484.59
2023-01-19T10:48:20.964Z,98468.53
2023-01-19T10:51:08.142Z,98499.44
2023-01-19T10:53:44.075Z,98460.06
2023-01-19T10:56:18.700Z,98464.59
2023-01-19T10:58:53.152Z,98484.09
2023-01-19T11:01:25.528Z,98481.84
2023-01-19T11:03:57.434Z,98483.09
2023-01-19T11:06:41.317Z,98484.47
2023-01-19T11:09:28.841Z,98499.16
2023-01-19T11:12:10.866Z,98482.88
2023-01-19T11:15:37.767Z,98470.69
2023-01-19T11:18:08.431Z,98472.88
2023-01-19T11:20:46.922Z,98489.19
2023-01-19T11:23:27.493Z,98493.59
2023-01-19T11:26:01.321Z,98492.34
2023-01-19T11:28:33.348Z,98486.09
2023-01-19T11:31:15.393Z,98489.97
2023-01-19T11:34:00.089Z,98515.78
2023-01-19T11:36:36.423Z,98509.72
2023-01-19T11:39:24.409Z,98507.38
2023-01-19T11:41:58.949Z,98506.53
2023-01-19T11:44:32.772Z,98530.44
2023-01-19T11:47:02.982Z,98515.75
2023-01-19T11:49:50.747Z,98511.56
2023-01-19T11:52:24.345Z,98501.25
2023-01-19T11:55:00.871Z,98547.22
2023-01-19T11:57:32.031Z,98503.50
2023-01-19T12:00:11.501Z,98510.78
2023-01-19T12:02:44.847Z,98507.44
2023-01-19T12:05:35.591Z,98506.84
2023-01-19T12:08:09.315Z,98514.31
2023-01-19T12:10:47.876Z,98506.41
2023-01-19T12:13:26.915Z,98522.09
2023-01-19T12:15:59.757Z,98512.00
2023-01-19T12:18:32.007Z,98488.91
2023-01-19T12:21:12.231Z,98518.91
2023-01-19T12:23:50.587Z,98510.78
2023-01-19T12:26:44.783Z,98504.47
2023-01-19T12:29:23.138Z,98507.00
2023-01-19T12:32:38.538Z,98520.06
2023-01-19T12:35:17.060Z,98503.19
2023-01-19T12:37:55.845Z,98505.63
2023-01-19T12:40:33.740Z,98525.47
2023-01-19T12:43:18.479Z,98513.63
2023-01-19T12:45:54.983Z,98515.69
2023-01-19T12:48:29.745Z,98524.19
2023-01-19T12:51:12.637Z,98517.28
2023-01-19T12:53:55.597Z,98507.38
2023-01-19T12:56:31.627Z,98508.09
2023-01-19T12:59:01.136Z,98521.34
2023-01-19T13:01:29.646Z,98512.28
2023-01-19T13:04:04.335Z,98506.16
2023-01-19T13:07:10.684Z,98502.22
2023-01-19T13:09:46.147Z,98497.53
2023-01-19T13:12:26.957Z,98505.06
2023-01-19T13:15:32.862Z,98507.25
2023-01-19T13:18:02.251Z,98503.38
2023-01-19T13:20:36.619Z,98518.53
2023-01-19T13:23:46.033Z,98515.44
2023-01-19T13:26:30.941Z,98528.50
2023-01-19T13:29:07.202Z,98526.63
2023-01-19T13:31:37.680Z,98546.94
2023-01-19T13:34:17.826Z,98540.81
2023-01-19T13:36:55.368Z,98532.47
2023-01-19T13:39:36.914Z,98559.28
2023-01-19T13:42:27.725Z,98550.25
2023-01-19T13:45:02.783Z,98549.22
2023-01-19T13:47:42.305Z,98558.59
2023-01-19T13:50:23.680Z,98562.78
2023-01-19T13:52:59.299Z,98562.72
2023-01-19T13:55:39.973Z,98553.47
2023-01-19T13:58:31.656Z,98572.66
2023-01-19T14:01:00.022Z,98580.22
2023-01-19T14:03:29.898Z,98575.91
2023-01-19T14:06:02.098Z,98583.47
2023-01-19T14:08:33.878Z,98574.50
2023-01-19T14:11:07.610Z,98569.66
2023-01-19T14:13:46.631Z,98584.44
2023-01-19T14:16:23.822Z,98593.69
2023-01-19T14:19:00.673Z,98585.38
2023-01-19T14:21:42.446Z,98600.25
2023-01-19T14:24:18.975Z,98595.72
2023-01-19T14:26:49.521Z,98600.50
2023-01-19T14:29:34.748Z,98602.47
2023-01-19T14:32:14.939Z,98586.75
2023-01-19T14:34:52.821Z,98583.38
2023-01-19T14:37:30.776Z,98599.78
2023-01-19T14:40:07.071Z,98604.84
2023-01-19T14:42:39.391Z,98604.81
2023-01-19T14:45:21.808Z,98599.81
2023-01-19T14:47:58.252Z,98593.25
2023-01-19T14:50:29.035Z,98613.22
2023-01-19T14:53:01.177Z,98594.75
2023-01-19T14:55:36.036Z,98603.44
2023-01-19T14:58:14.900Z,98598.78
2023-01-19T15:00:50.357Z,98609.47
2023-01-19T15:03:38.543Z,98602.13
2023-01-19T15:06:17.254Z,98596.41
2023-01-19T15:08:50.223Z,98609.81
2023-01-19T15:11:26.696Z,98610.50
2023-01-19T15:13:59.755Z,98603.69
2023-01-19T15:16:31.656Z,98616.63
2023-01-19T15:19:06.622Z,98620.44
2023-01-19T15:21:37.655Z,98641.44
2023-01-19T15:24:11.036Z,98616.28
2023-01-19T15:26:43.770Z,98624.56
2023-01-19T15:29:22.266Z,98617.63
2023-01-19T15:31:55.561Z,98622.38
2023-01-19T15:34:24.687Z,98638.69
2023-01-19T15:36:58.872Z,98646.25
2023-01-19T15:39:39.455Z,98636.28
2023-01-19T15:42:14.412Z,98636.16
2023-01-19T15:44:43.813Z,98657.44
2023-01-19T15:47:21.401Z,98663.22
2023-01-19T15:49:53.306Z,98641.56
2023-01-19T15:52:30.113Z,98661.00
2023-01-19T15:55:03.734Z,98663.34
2023-01-19T15:57:35.364Z,98657.56
2023-01-19T16:00:06.090Z,98658.31
2023-01-19T16:02:56.173Z,98656.00
2023-01-19T16:05:34.001Z,98674.84
2023-01-19T16:08:21.263Z,98687.97
2023-01-19T16:10:55.987Z,98695.63
2023-01-19T16:13:27.086Z,98692.53
2023-01-19T16:15:57.915Z,98695.91
2023-01-19T16:18:50.387Z,98690.09
2023-01-19T16:21:22.229Z,98692.53
2023-01-19T16:23:54.320Z,98699.94
2023-01-19T16:26:32.586Z,98713.44
2023-01-19T16:29:08.211Z,98702.69
2023-01-19T16:31:39.226Z,98698.78
2023-01-19T16:34:16.588Z,98717.34
2023-01-19T16:36:48.352Z,98732.84
2023-01-19T16:39:22.852Z,98718.31
2023-01-19T16:45:27.144Z,98731.25
2023-01-19T16:48:05.700Z,98738.22
2023-01-19T16:50:42.990Z,98741.22
2023-01-19T16:53:11.999Z,98748.53
2023-01-19T16:55:45.989Z,98749.22
2023-01-19T16:58:17.773Z,98759.09
2023-01-19T17:04:06.830Z,98767.63
2023-01-19T17:06:42.106Z,98773.31
2023-01-19T17:09:16.470Z,98781.47
2023-01-19T17:11:54.403Z,98782.34
2023-01-19T17:14:26.134Z,98776.47
2023-01-19T17:16:59.902Z,98789.13
2023-01-19T17:19:38.446Z,98796.91
2023-01-19T17:22:24.499Z,98800.59
2023-01-19T17:25:05.467Z,98793.41
2023-01-19T17:27:37.373Z,98793.84
2023-01-19T17:30:10.539Z,98778.16
2023-01-19T17:32:43.564Z,98780.22
2023-01-19T17:35:33.117Z,98788.13
2023-01-19T17:38:09.055Z,98796.94
2023-01-19T17:40:39.925Z,98786.53
2023-01-19T17:43:16.646Z,98773.34
2023-01-19T17:45:53.484Z,98766.41
2023-01-19T17:48:27.788Z,98764.66
2023-01-19T17:51:08.190Z,98772.91
2023-01-19T17:53:48.178Z,98772.94
2023-01-19T17:56:23.234Z,98788.19
2023-01-19T17:58:57.386Z,98784.09
2023-01-19T18:01:44.865Z,98794.97
2023-01-19T18:04:20.081Z,98789.03
2023-01-19T18:06:51.074Z,98786.94
2023-01-19T18:09:32.192Z,98802.75
2023-01-19T18:12:12.269Z,98797.38
2023-01-19T18:14:55.134Z,98796.94
2023-01-19T18:17:29.089Z,98796.47
2023-01-19T18:20:18.268Z,98795.50
2023-01-19T18:22:49.205Z,98783.56
2023-01-19T18:25:25.094Z,98804.31
2023-01-19T18:27:56.485Z,98798.66
2023-01-19T18:30:33.658Z,98794.63
2023-01-19T18:33:16.900Z,98811.72
2023-01-19T18:36:02.913Z,98804.38
2023-01-19T18:38:35.371Z,98811.88
2023-01-19T18:41:12.929Z,98814.47
2023-01-19T18:43:52.511Z,98799.47
2023-01-19T18:46:24.823Z,98798.56
2023-01-19T18:48:56.185Z,98805.03
2023-01-19T18:51:35.589Z,98803.88
2023-01-19T18:54:07.203Z,98797.47
2023-01-19T18:56:58.401Z,98786.31
2023-01-19T18:59:31.775Z,98777.53
2023-01-19T19:02:07.427Z,98770.50
2023-01-19T19:04:38.584Z,98766.00
2023-01-19T19:07:13.287Z,98776.63
2023-01-19T19:09:44.295Z,98787.72
2023-01-19T19:12:23.321Z,98805.81
2023-01-19T19:14:54.110Z,98801.44
2023-01-19T19:17:24.935Z,98796.34
2023-01-19T19:20:05.416Z,98810.41
2023-01-19T19:22:46.875Z,98812.19
2023-01-19T19:25:26.347Z,98822.06
2023-01-19T19:28:04.140Z,98827.03
2023-01-19T19:30:46.202Z,98823.72
2023-01-19T19:33:23.616Z,98851.25
2023-01-19T19:36:00.187Z,98820.72
2023-01-19T19:38:34.999Z,98827.25
2023-01-19T19:41:20.392Z,98835.44
2023-01-19T19:44:16.294Z,98846.31
2023-01-19T19:47:03.802Z,98859.22
2023-01-19T19:49:38.287Z,98838.00
2023-01-19T19:52:15.238Z,98839.41
2023-01-19T19:54:51.055Z,98831.34
2023-01-19T19:57:23.443Z,98834.63
2023-01-19T20:00:03.618Z,98835.19
2023-01-19T20:02:56.374Z,98840.84
2023-01-19T20:05:31.895Z,98832.78
2023-01-19T20:08:10.661Z,98837.78
2023-01-19T20:10:46.587Z,98829.28
2023-01-19T20:13:26.759Z,98849.63
2023-01-19T20:16:20.913Z,98865.16
2023-01-19T20:18:56.597Z,98850.03
2023-01-19T20:21:28.684Z,98842.06
2023-01-19T20:24:04.225Z,98855.19
2023-01-19T20:26:47.181Z,98837.50
2023-01-19T20:29:27.878Z,98844.59
2023-01-19T20:32:16.124Z,98847.56
2023-01-19T20:35:00.685Z,98841.34
2023-01-19T20:37:38.471Z,98845.94
2023-01-19T20:40:21.398Z,98832.25
2023-01-19T20:42:52.334Z,98839.44
2023-01-19T20:45:46.987Z,98849.66
2023-01-19T20:48:27.178Z,98843.84
2023-01-19T20:51:04.765Z,98849.28
2023-01-19T20:53:36.223Z,98859.59
2023-01-19T20:56:23.228Z,98849.06
2023-01-19T20:59:09.536Z,98851.16
2023-01-19T21:01:53.798Z,98859.47
2023-01-19T21:04:46.273Z,98864.09
2023-01-19T21:07:27.647Z,98878.16
2023-01-19T21:10:08.223Z,98877.59
2023-01-19T21:12:39.831Z,98878.97
2023-01-19T21:15:22.419Z,98880.53
2023-01-19T21:18:02.304Z,98895.25
2023-01-19T21:20:35.457Z,98889.81
2023-01-19T21:23:14.757Z,98890.22
2023-01-19T21:25:55.214Z,98888.66
2023-01-19T21:28:36.248Z,98886.25
2023-01-19T21:31:16.432Z,98880.03
2023-01-19T21:33:55.269Z,98870.88
2023-01-19T21:36:28.313Z,98896.22
2023-01-19T21:39:02.900Z,98880.03
2023-01-19T21:41:35.988Z,98898.72
2023-01-19T21:44:10.016Z,98906.31
2023-01-19T21:46:44.997Z,98913.91
2023-01-19T21:49:21.573Z,98914.81
2023-01-19T21:51:57.759Z,98919.78
2023-01-19T21:54:31.670Z,98913.25
2023-01-19T21:57:15.273Z,98913.25
2023-01-19T21:59:49.335Z,98918.81
2023-01-19T22:02:37.389Z,98925.69
2023-01-19T22:05:09.581Z,98931.25
2023-01-19T22:07:45.037Z,98925.44
2023-01-19T22:10:19.968Z,98939.94
2023-01-19T22:12:55.072Z,98943.63
2023-01-19T22:15:25.633Z,98937.63
2023-01-19T22:17:58.247Z,98943.75
2023-01-19T22:20:29.012Z,98955.16
2023-01-19T22:23:12.930Z,98954.72
2023-01-19T22:25:45.599Z,98961.31
2023-01-19T22:28:19.022Z,98953.81
2023-01-19T22:31:00.096Z,98967.63
2023-01-19T22:33:42.376Z,98961.84
2023-01-19T22:36:20.054Z,98943.00
2023-01-19T22:39:00.524Z,98935.41
2023-01-19T22:41:33.899Z,98928.31
2023-01-19T22:44:12.021Z,98940.50
2023-01-19T22:46:49.146Z,98943.28
2023-01-19T22:49:25.490Z,98932.47
2023-01-19T22:51:59.711Z,98927.34
2023-01-19T22:54:37.386Z,98937.94
2023-01-19T22:57:13.281Z,98921.06
2023-01-19T22:59:44.207Z,98939.78
2023-01-19T23:02:16.129Z,98934.22
2023-01-19T23:04:47.777Z,98938.47
2023-01-19T23:07:21.989Z,98929.03
2023-01-19T23:09:57.916Z,98935.13
2023-01-19T23:12:32.045Z,98935.75
2023-01-19T23:15:07.174Z,98921.00
2023-01-19T23:17:39.116Z,98914.88
2023-01-19T23:20:20.383Z,98922.69
2023-01-19T23:25:55.149Z,98916.91
2023-01-19T23:28:32.304Z,98902.72
2023-01-19T23:31:17.551Z,98905.16
2023-01-19T23:33:46.545Z,98893.66
2023-01-19T23:36:16.167Z,98907.59
2023-01-19T23:38:57.808Z,98889.78
2023-01-19T23:41:37.528Z,98897.38
2023-01-19T23:44:06.808Z,98897.91
2023-01-19T23:46:36.943Z,98903.03
2023-01-19T23:49:09.234Z,98902.19
2023-01-19T23:51:40.814Z,98891.06
2023-01-19T23:54:16.771Z,98905.56
2023-01-19T23:56:51.769Z,98905.22
2023-01-19T23:59:28.885Z,98900.41
